Time,TemperatureF,DewpointF,PressureIn,WindDirection,WindDirectionDegrees,WindSpeedMPH,WindSpeedGustMPH,Humidity,HourlyPrecipIn,Conditions,Clouds,dailyrainin,SoftwareType,DateUTC
2013-01-29 00:02:00,53.0,-99.9,-100.00,South,185,4.0,8.0,-999,0.00,,,0.00,,2013-01-29 06:02:00,
2013-01-29 00:11:00,53.0,-99.9,-100.00,South,185,4.0,8.0,-999,0.00,,,0.00,,2013-01-29 06:11:00,
2013-01-29 00:22:00,53.0,-99.9,-100.00,South,185,4.0,8.0,-999,0.00,,,0.00,,2013-01-29 06:22:00,
2013-01-29 00:32:00,54.0,-99.9,-100.00,SSW,192,6.0,9.0,-999,0.00,,,0.00,,2013-01-29 06:32:00,
2013-01-29 00:42:00,54.0,-99.9,-100.00,SSW,192,6.0,9.0,-999,0.00,,,0.00,,2013-01-29 06:42:00,
2013-01-29 00:52:00,54.0,-99.9,-100.00,SSW,192,6.0,9.0,-999,0.00,,,0.00,,2013-01-29 06:52:00,
2013-01-29 01:02:00,55.0,-99.9,-100.00,SSW,192,5.0,8.0,-999,0.00,,,0.00,,2013-01-29 07:02:00,
2013-01-29 01:11:00,55.0,-99.9,-100.00,SSW,192,5.0,8.0,-999,0.00,,,0.00,,2013-01-29 07:11:00,
2013-01-29 01:21:00,55.0,-99.9,-100.00,SSW,192,5.0,8.0,-999,0.00,,,0.00,,2013-01-29 07:21:00,
2013-01-29 01:32:00,55.0,-99.9,-100.00,South,184,5.0,10.0,-999,0.00,,,0.00,,2013-01-29 07:32:00,
2013-01-29 01:42:00,55.0,-99.9,-100.00,South,184,5.0,10.0,-999,0.00,,,0.00,,2013-01-29 07:42:00,
2013-01-29 01:52:00,55.0,-99.9,-100.00,South,184,5.0,10.0,-999,0.00,,,0.00,,2013-01-29 07:52:00,
2013-01-29 02:02:00,57.0,-99.9,-100.00,SSW,192,7.0,12.0,-999,0.00,,,0.00,,2013-01-29 08:02:00,
2013-01-29 02:11:00,57.0,-99.9,-100.00,SSW,192,7.0,12.0,-999,0.00,,,0.00,,2013-01-29 08:11:00,
2013-01-29 02:21:00,57.0,-99.9,-100.00,SSW,192,7.0,12.0,-999,0.00,,,0.00,,2013-01-29 08:21:00,
2013-01-29 02:32:00,57.0,-99.9,-100.00,South,177,7.0,11.0,-999,0.00,,,0.00,,2013-01-29 08:32:00,
2013-01-29 02:42:00,57.0,-99.9,-100.00,South,177,7.0,11.0,-999,0.00,,,0.00,,2013-01-29 08:42:00,
2013-01-29 02:52:00,57.0,-99.9,-100.00,South,177,7.0,11.0,-999,0.00,,,0.00,,2013-01-29 08:52:00,
2013-01-29 03:02:00,57.0,-99.9,-100.00,South,176,6.0,10.0,-999,0.00,,,0.00,,2013-01-29 09:02:00,
2013-01-29 03:11:00,57.0,-99.9,-100.00,South,176,6.0,10.0,-999,0.00,,,0.00,,2013-01-29 09:11:00,
2013-01-29 03:22:00,57.0,-99.9,-100.00,South,176,6.0,10.0,-999,0.00,,,0.00,,2013-01-29 09:22:00,
2013-01-29 03:32:00,57.0,-99.9,-100.00,South,183,6.0,10.0,-999,0.00,,,0.00,,2013-01-29 09:32:00,
2013-01-29 03:42:00,57.0,-99.9,-100.00,South,183,6.0,10.0,-999,0.00,,,0.00,,2013-01-29 09:42:00,
2013-01-29 03:52:00,57.0,-99.9,-100.00,South,183,6.0,10.0,-999,0.00,,,0.00,,2013-01-29 09:52:00,
2013-01-29 04:02:00,57.0,-99.9,-100.00,South,174,5.0,9.0,-999,0.00,,,0.00,,2013-01-29 10:02:00,
2013-01-29 04:11:00,57.0,-99.9,-100.00,South,174,5.0,9.0,-999,0.00,,,0.00,,2013-01-29 10:11:00,
2013-01-29 04:22:00,57.0,-99.9,-100.00,South,174,5.0,9.0,-999,0.00,,,0.00,,2013-01-29 10:22:00,
2013-01-29 04:32:00,56.0,-99.9,-100.00,South,174,4.0,5.0,-999,0.00,,,0.00,,2013-01-29 10:32:00,
2013-01-29 04:42:00,56.0,-99.9,-100.00,South,174,4.0,5.0,-999,0.00,,,0.00,,2013-01-29 10:42:00,
2013-01-29 04:52:00,56.0,-99.9,-100.00,South,174,4.0,5.0,-999,0.00,,,0.00,,2013-01-29 10:52:00,
2013-01-29 05:02:00,57.0,-99.9,-100.00,South,184,4.0,9.0,-999,0.00,,,0.00,,2013-01-29 11:02:00,
2013-01-29 05:12:00,57.0,-99.9,-100.00,South,184,4.0,9.0,-999,0.00,,,0.00,,2013-01-29 11:12:00,
2013-01-29 05:22:00,57.0,-99.9,-100.00,South,184,4.0,9.0,-999,0.00,,,0.00,,2013-01-29 11:22:00,
2013-01-29 05:32:00,59.0,-99.9,-100.00,South,179,7.0,11.0,-999,0.00,,,0.00,,2013-01-29 11:32:00,
2013-01-29 05:42:00,59.0,-99.9,-100.00,South,179,7.0,11.0,-999,0.00,,,0.00,,2013-01-29 11:42:00,
2013-01-29 05:53:00,59.0,-99.9,-100.00,South,179,7.0,11.0,-999,0.00,,,0.00,,2013-01-29 11:53:00,
2013-01-29 06:03:00,60.0,-99.9,-100.00,South,184,10.0,16.0,-999,0.00,,,0.00,,2013-01-29 12:03:00,
2013-01-29 06:12:00,60.0,-99.9,-100.00,South,184,10.0,16.0,-999,0.00,,,0.00,,2013-01-29 12:12:00,
2013-01-29 06:22:00,60.0,-99.9,-100.00,South,184,10.0,16.0,-999,0.00,,,0.00,,2013-01-29 12:22:00,
2013-01-29 06:33:00,59.0,-99.9,-100.00,South,191,7.0,10.0,-999,0.00,,,0.00,,2013-01-29 12:33:00,
2013-01-29 06:43:00,59.0,-99.9,-100.00,South,191,7.0,10.0,-999,0.00,,,0.00,,2013-01-29 12:43:00,
2013-01-29 06:53:00,59.0,-99.9,-100.00,South,191,7.0,10.0,-999,0.00,,,0.00,,2013-01-29 12:53:00,
2013-01-29 07:02:00,59.0,-99.9,-100.00,South,181,5.0,8.0,-999,0.00,,,0.00,,2013-01-29 13:02:00,
2013-01-29 07:12:00,59.0,-99.9,-100.00,South,181,5.0,8.0,-999,0.00,,,0.00,,2013-01-29 13:12:00,
2013-01-29 07:23:00,59.0,-99.9,-100.00,South,181,5.0,8.0,-999,0.00,,,0.00,,2013-01-29 13:23:00,
2013-01-29 07:32:00,57.0,-99.9,-100.00,South,186,5.0,8.0,-999,0.00,,,0.00,,2013-01-29 13:32:00,
2013-01-29 07:43:00,57.0,-99.9,-100.00,South,186,5.0,8.0,-999,0.00,,,0.00,,2013-01-29 13:43:00,
2013-01-29 07:53:00,57.0,-99.9,-100.00,South,186,5.0,8.0,-999,0.00,,,0.00,,2013-01-29 13:53:00,
2013-01-29 08:02:00,57.0,-99.9,-100.00,South,189,5.0,8.0,-999,0.00,,,0.00,,2013-01-29 14:02:00,
2013-01-29 08:13:00,57.0,-99.9,-100.00,South,189,5.0,8.0,-999,0.00,,,0.00,,2013-01-29 14:13:00,
2013-01-29 08:22:00,57.0,-99.9,-100.00,South,189,5.0,8.0,-999,0.00,,,0.00,,2013-01-29 14:22:00,
2013-01-29 08:33:00,55.0,-99.9,-100.00,SSE,159,3.0,7.0,-999,0.00,,,0.00,,2013-01-29 14:33:00,
2013-01-29 08:43:00,55.0,-99.9,-100.00,SSE,159,3.0,7.0,-999,0.00,,,0.00,,2013-01-29 14:43:00,
2013-01-29 08:53:00,55.0,-99.9,-100.00,SSE,159,3.0,7.0,-999,0.00,,,0.00,,2013-01-29 14:53:00,
2013-01-29 09:03:00,56.0,-99.9,-100.00,South,171,2.0,5.0,-999,0.00,,,0.00,,2013-01-29 15:03:00,
2013-01-29 09:12:00,56.0,-99.9,-100.00,South,171,2.0,5.0,-999,0.00,,,0.00,,2013-01-29 15:12:00,
2013-01-29 09:22:00,56.0,-99.9,-100.00,South,171,2.0,5.0,-999,0.00,,,0.00,,2013-01-29 15:22:00,
2013-01-29 09:33:00,57.0,-99.9,-100.00,South,175,2.0,3.0,-999,0.00,,,0.00,,2013-01-29 15:33:00,
2013-01-29 09:43:00,57.0,-99.9,-100.00,South,175,2.0,3.0,-999,0.00,,,0.00,,2013-01-29 15:43:00,
2013-01-29 09:53:00,57.0,-99.9,-100.00,South,175,2.0,3.0,-999,0.00,,,0.00,,2013-01-29 15:53:00,
2013-01-29 10:03:00,59.0,-99.9,-100.00,South,186,5.0,9.0,-999,0.00,,,0.00,,2013-01-29 16:03:00,
2013-01-29 10:13:00,59.0,-99.9,-100.00,South,186,5.0,9.0,-999,0.00,,,0.00,,2013-01-29 16:13:00,
2013-01-29 10:23:00,59.0,-99.9,-100.00,South,186,5.0,9.0,-999,0.00,,,0.00,,2013-01-29 16:23:00,
2013-01-29 10:33:00,61.0,-99.9,-100.00,South,177,6.0,11.0,-999,0.00,,,0.00,,2013-01-29 16:33:00,
2013-01-29 10:43:00,61.0,-99.9,-100.00,South,177,6.0,11.0,-999,0.00,,,0.00,,2013-01-29 16:43:00,
2013-01-29 10:53:00,61.0,-99.9,-100.00,South,177,6.0,11.0,-999,0.00,,,0.00,,2013-01-29 16:53:00,
2013-01-29 11:03:00,61.0,-99.9,-100.00,South,177,6.0,10.0,-999,0.00,,,0.00,,2013-01-29 17:03:00,
2013-01-29 11:13:00,61.0,-99.9,-100.00,South,177,6.0,10.0,-999,0.00,,,0.00,,2013-01-29 17:13:00,
2013-01-29 11:22:00,61.0,-99.9,-100.00,South,177,6.0,10.0,-999,0.00,,,0.00,,2013-01-29 17:22:00,
2013-01-29 11:33:00,59.0,-99.9,-100.00,South,184,5.0,8.0,-999,0.01,,,0.01,,2013-01-29 17:33:00,
2013-01-29 11:43:00,59.0,-99.9,-100.00,South,184,5.0,8.0,-999,0.01,,,0.01,,2013-01-29 17:43:00,
2013-01-29 11:53:00,59.0,-99.9,-100.00,South,184,5.0,8.0,-999,0.01,,,0.01,,2013-01-29 17:53:00,
2013-01-29 12:05:00,59.0,-99.9,-100.00,South,173,4.0,7.0,-999,0.04,,,0.04,,2013-01-29 18:05:00,
2013-01-29 12:13:00,59.0,-99.9,-100.00,South,173,4.0,7.0,-999,0.04,,,0.04,,2013-01-29 18:13:00,
2013-01-29 12:22:00,59.0,-99.9,-100.00,South,173,4.0,7.0,-999,0.04,,,0.04,,2013-01-29 18:22:00,
2013-01-29 12:34:00,58.0,-99.9,-100.00,South,170,5.0,7.0,-999,0.10,,,0.11,,2013-01-29 18:34:00,
2013-01-29 12:43:00,58.0,-99.9,-100.00,South,170,5.0,7.0,-999,0.10,,,0.11,,2013-01-29 18:43:00,
2013-01-29 12:52:00,58.0,-99.9,-100.00,South,170,5.0,7.0,-999,0.10,,,0.11,,2013-01-29 18:52:00,
2013-01-29 13:00:00,53.0,-99.9,-100.00,SW,214,3.0,6.0,-999,0.05,,,0.16,,2013-01-29 19:00:00,
2013-01-29 13:03:00,58.0,-99.9,-100.00,South,182,5.0,8.0,-999,0.11,,,0.15,,2013-01-29 19:03:00,
2013-01-29 13:12:00,58.0,-99.9,-100.00,South,182,5.0,8.0,-999,0.11,,,0.15,,2013-01-29 19:12:00,
2013-01-29 13:23:00,58.0,-99.9,-100.00,South,182,5.0,8.0,-999,0.11,,,0.15,,2013-01-29 19:23:00,
2013-01-29 13:33:00,53.0,-99.9,-100.00,SW,214,3.0,6.0,-999,0.05,,,0.16,,2013-01-29 19:33:00,
2013-01-29 13:42:00,53.0,-99.9,-100.00,SW,214,3.0,6.0,-999,0.05,,,0.16,,2013-01-29 19:42:00,
2013-01-29 13:52:00,53.0,-99.9,-100.00,SW,214,3.0,6.0,-999,0.05,,,0.16,,2013-01-29 19:52:00,
2013-01-29 14:30:00,47.0,-99.9,-100.00,NW,320,12.0,15.0,-999,0.07,,,0.27,,2013-01-29 20:30:00,
2013-01-29 14:33:00,48.0,-99.9,-100.00,NNW,330,7.0,10.0,-999,0.07,,,0.23,,2013-01-29 20:33:00,
2013-01-29 14:43:00,48.0,-99.9,-100.00,NNW,330,7.0,10.0,-999,0.07,,,0.23,,2013-01-29 20:43:00,
2013-01-29 14:54:00,48.0,-99.9,-100.00,NNW,330,7.0,10.0,-999,0.07,,,0.23,,2013-01-29 20:54:00,
2013-01-29 15:03:00,47.0,-99.9,-100.00,NW,320,12.0,15.0,-999,0.07,,,0.27,,2013-01-29 21:03:00,
2013-01-29 15:13:00,47.0,-99.9,-100.00,NW,320,12.0,15.0,-999,0.07,,,0.27,,2013-01-29 21:13:00,
2013-01-29 15:23:00,47.0,-99.9,-100.00,NW,320,12.0,15.0,-999,0.07,,,0.27,,2013-01-29 21:23:00,
2013-01-29 15:43:00,45.0,-99.9,-100.00,NNW,343,11.0,15.0,-999,0.08,,,0.31,,2013-01-29 21:43:00,
2013-01-29 15:53:00,45.0,-99.9,-100.00,NNW,343,11.0,15.0,-999,0.08,,,0.31,,2013-01-29 21:53:00,
2013-01-29 16:00:00,45.0,-99.9,-100.00,NE,37,3.0,6.0,-999,0.08,,,0.39,,2013-01-29 22:00:00,
2013-01-29 16:03:00,45.0,-99.9,-100.00,NNE,32,3.0,5.0,-999,0.08,,,0.35,,2013-01-29 22:03:00,
2013-01-29 16:12:00,45.0,-99.9,-100.00,NNE,32,3.0,5.0,-999,0.08,,,0.35,,2013-01-29 22:12:00,
2013-01-29 16:22:00,45.0,-99.9,-100.00,NNE,32,3.0,5.0,-999,0.08,,,0.35,,2013-01-29 22:22:00,
2013-01-29 16:33:00,45.0,-99.9,-100.00,NE,37,3.0,6.0,-999,0.08,,,0.39,,2013-01-29 22:33:00,
2013-01-29 16:43:00,45.0,-99.9,-100.00,NE,37,3.0,6.0,-999,0.08,,,0.39,,2013-01-29 22:43:00,
2013-01-29 16:53:00,45.0,-99.9,-100.00,NE,37,3.0,6.0,-999,0.08,,,0.39,,2013-01-29 22:53:00,
2013-01-29 17:33:00,44.0,-99.9,-100.00,NNE,15,3.0,5.0,-999,0.14,,,0.53,,2013-01-29 23:33:00,
2013-01-29 17:42:00,44.0,-99.9,-100.00,NNE,15,3.0,5.0,-999,0.14,,,0.53,,2013-01-29 23:42:00,
2013-01-29 17:53:00,44.0,-99.9,-100.00,NNE,15,3.0,5.0,-999,0.14,,,0.53,,2013-01-29 23:53:00,
2013-01-29 18:03:00,43.0,-99.9,-100.00,North,8,1.0,2.0,-999,0.10,,,0.57,,2013-01-30 00:03:00,
2013-01-29 18:12:00,43.0,-99.9,-100.00,North,8,1.0,2.0,-999,0.10,,,0.57,,2013-01-30 00:12:00,
2013-01-29 18:22:00,43.0,-99.9,-100.00,North,8,1.0,2.0,-999,0.10,,,0.57,,2013-01-30 00:22:00,
2013-01-29 18:33:00,43.0,-99.9,-100.00,NW,321,5.0,6.0,-999,0.07,,,0.60,,2013-01-30 00:33:00,
2013-01-29 18:43:00,43.0,-99.9,-100.00,NW,321,5.0,6.0,-999,0.07,,,0.60,,2013-01-30 00:43:00,
2013-01-29 18:53:00,43.0,-99.9,-100.00,NW,321,5.0,6.0,-999,0.07,,,0.60,,2013-01-30 00:53:00,
2013-01-29 19:02:00,42.0,-99.9,-100.00,NW,321,9.0,11.0,-999,0.03,,,0.60,,2013-01-30 01:02:00,
2013-01-29 19:12:00,42.0,-99.9,-100.00,NW,321,9.0,11.0,-999,0.03,,,0.60,,2013-01-30 01:12:00,
2013-01-29 19:23:00,42.0,-99.9,-100.00,NW,321,9.0,11.0,-999,0.03,,,0.60,,2013-01-30 01:23:00,
2013-01-29 19:32:00,40.0,-99.9,-100.00,NNW,344,10.0,12.0,-999,0.01,,,0.61,,2013-01-30 01:32:00,
2013-01-29 19:43:00,40.0,-99.9,-100.00,NNW,344,10.0,12.0,-999,0.01,,,0.61,,2013-01-30 01:43:00,
2013-01-29 19:52:00,40.0,-99.9,-100.00,NNW,344,10.0,12.0,-999,0.01,,,0.61,,2013-01-30 01:52:00,
2013-01-29 20:03:00,39.0,-99.9,-100.00,WNW,300,6.0,7.0,-999,0.02,,,0.62,,2013-01-30 02:03:00,
2013-01-29 20:13:00,39.0,-99.9,-100.00,WNW,300,6.0,7.0,-999,0.02,,,0.62,,2013-01-30 02:13:00,
2013-01-29 20:22:00,39.0,-99.9,-100.00,WNW,300,6.0,7.0,-999,0.02,,,0.62,,2013-01-30 02:22:00,
2013-01-29 20:30:00,38.0,-99.9,-100.00,NW,320,7.0,9.0,-999,0.02,,,0.64,,2013-01-30 02:30:00,
2013-01-29 20:33:00,38.0,-99.9,-100.00,NW,325,9.0,12.0,-999,0.03,,,0.64,,2013-01-30 02:33:00,
2013-01-29 20:42:00,38.0,-99.9,-100.00,NW,325,9.0,12.0,-999,0.03,,,0.64,,2013-01-30 02:42:00,
2013-01-29 20:53:00,38.0,-99.9,-100.00,NW,325,9.0,12.0,-999,0.03,,,0.64,,2013-01-30 02:53:00,
2013-01-29 21:03:00,38.0,-99.9,-100.00,NW,320,7.0,9.0,-999,0.02,,,0.64,,2013-01-30 03:03:00,
2013-01-29 21:12:00,38.0,-99.9,-100.00,NW,320,7.0,9.0,-999,0.02,,,0.64,,2013-01-30 03:12:00,
2013-01-29 21:22:00,38.0,-99.9,-100.00,NW,320,7.0,9.0,-999,0.02,,,0.64,,2013-01-30 03:22:00,
2013-01-29 22:03:00,37.0,-99.9,-100.00,NW,322,7.0,12.0,-999,0.00,,,0.64,,2013-01-30 04:03:00,
2013-01-29 22:12:00,37.0,-99.9,-100.00,NW,322,7.0,12.0,-999,0.00,,,0.64,,2013-01-30 04:12:00,
2013-01-29 22:22:00,37.0,-99.9,-100.00,NW,322,7.0,12.0,-999,0.00,,,0.64,,2013-01-30 04:22:00,
2013-01-29 22:32:00,37.0,-99.9,-100.00,NW,312,4.0,6.0,-999,0.01,,,0.65,,2013-01-30 04:32:00,
2013-01-29 22:42:00,37.0,-99.9,-100.00,NW,312,4.0,6.0,-999,0.01,,,0.65,,2013-01-30 04:42:00,
2013-01-29 22:52:00,37.0,-99.9,-100.00,NW,312,4.0,6.0,-999,0.01,,,0.65,,2013-01-30 04:52:00,
2013-01-29 23:00:00,36.0,-99.9,-100.00,NW,322,10.0,13.0,-999,0.00,,,0.65,,2013-01-30 05:00:00,
2013-01-29 23:04:00,36.0,-99.9,-100.00,NW,325,8.0,12.0,-999,0.01,,,0.65,,2013-01-30 05:04:00,
2013-01-29 23:12:00,36.0,-99.9,-100.00,NW,325,8.0,12.0,-999,0.01,,,0.65,,2013-01-30 05:12:00,
2013-01-29 23:22:00,36.0,-99.9,-100.00,NW,325,8.0,12.0,-999,0.01,,,0.65,,2013-01-30 05:22:00,
2013-01-29 23:30:00,36.0,-99.9,-100.00,NW,318,10.0,12.0,-999,0.01,,,0.66,,2013-01-30 05:30:00,
2013-01-29 23:33:00,36.0,-99.9,-100.00,NW,322,10.0,13.0,-999,0.00,,,0.65,,2013-01-30 05:33:00,
2013-01-29 23:43:00,36.0,-99.9,-100.00,NW,322,10.0,13.0,-999,0.00,,,0.65,,2013-01-30 05:43:00,
2013-01-29 23:52:00,36.0,-99.9,-100.00,NW,322,10.0,13.0,-999,0.00,,,0.65,,2013-01-30 05:52:00,